Aurelia, North Dakota
Current Conditions -  °F | °C
As of 4:35 PM on Thursday 18 Dec 2014 (Local Time) from K08D Reporting Station
Overcast Overcast  
Wind Chill: 15°   Ceiling: 600
Heat Index: 23°   Visibility: 10mi
Dew Point: 23°   Wind: 7mph
Humidity: 100%   Direction: 230°SW
Pressure: 29.94"   Gusts: NA
Location:  48.4598°N, 101.907°W
Report Text: K08D 182235Z AUTO 23006KT 10SM OVC006 M05/M05 A2994 RMK AO2
Loading
Personal Weather Stations






























Interactive Weather Map New forecast layout! Learn more

10-Day Weather Forecast

Advertisements
Track Severe Weather on mobile